Terminal Aerodrome Forecast
Issued by NWS

Home | Current Version | Previous Version | Text Only | Print | Product List | Glossary Off
Versions: 1 2 3 4 5 6 7 8 9 10 11 12

000
FTUS43 KMPX 172320
TAFRNH
TAF
KRNH 172320Z 1800/1824 VRB03KT P6SM SKC
     FM181100 07007KT P6SM SCT200
     FM181700 10010G18KT P6SM BKN150=

USA.gov is the U.S. government's official web portal to all federal, state and local government web resources and services.